createdAt,value
2018-12-20T00:00:44.965Z,2.50
2018-12-20T00:03:49.070Z,2.60
2018-12-20T00:06:53.581Z,2.60
2018-12-20T00:09:57.534Z,2.60
2018-12-20T00:13:02.799Z,2.40
2018-12-20T00:16:07.122Z,2.50
2018-12-20T00:19:11.355Z,2.50
2018-12-20T00:22:15.309Z,2.50
2018-12-20T00:25:19.355Z,2.50
2018-12-20T00:28:23.489Z,2.50
2018-12-20T00:31:27.607Z,2.50
2018-12-20T00:34:31.624Z,2.50
2018-12-20T00:37:35.626Z,2.50
2018-12-20T00:40:39.571Z,2.50
2018-12-20T00:43:43.551Z,2.50
2018-12-20T00:46:47.468Z,2.40
2018-12-20T00:49:51.308Z,2.40
2018-12-20T00:52:55.581Z,2.40
2018-12-20T00:55:59.711Z,2.50
2018-12-20T00:59:03.924Z,2.50
2018-12-20T01:02:08.427Z,2.50
2018-12-20T01:05:12.586Z,2.50
2018-12-20T01:08:16.698Z,2.60
2018-12-20T01:11:20.817Z,2.70
2018-12-20T01:14:24.822Z,2.70
2018-12-20T01:17:32.868Z,2.80
2018-12-20T01:20:36.934Z,2.70
2018-12-20T01:23:40.870Z,2.70
2018-12-20T01:26:44.972Z,2.70
2018-12-20T01:29:49.102Z,2.70
2018-12-20T01:32:52.996Z,2.70
2018-12-20T01:35:56.966Z,2.60
2018-12-20T01:39:00.857Z,2.60
2018-12-20T01:42:04.808Z,2.60
2018-12-20T01:45:08.819Z,2.70
2018-12-20T01:48:12.801Z,2.70
2018-12-20T01:51:17.086Z,2.80
2018-12-20T01:54:21.026Z,2.80
2018-12-20T01:57:24.880Z,2.80
2018-12-20T02:00:28.780Z,2.60
2018-12-20T02:03:32.778Z,2.50
2018-12-20T02:06:36.843Z,2.50
2018-12-20T02:09:40.759Z,2.50
2018-12-20T02:12:44.913Z,2.50
2018-12-20T02:15:49.690Z,2.40
2018-12-20T02:18:53.723Z,2.20
2018-12-20T02:21:57.627Z,2.30
2018-12-20T02:25:01.696Z,2.30
2018-12-20T02:28:06.108Z,2.20
2018-12-20T02:31:10.381Z,2.20
2018-12-20T02:34:14.818Z,2.20
2018-12-20T02:37:18.905Z,2.10
2018-12-20T02:40:23.079Z,2.00
2018-12-20T02:43:27.044Z,2.10
2018-12-20T02:46:31.236Z,2.10
2018-12-20T02:49:35.172Z,2.10
2018-12-20T02:52:39.056Z,2.10
2018-12-20T02:55:43.095Z,2.10
2018-12-20T02:58:47.076Z,2.10
2018-12-20T03:01:51.057Z,2.00
2018-12-20T03:04:54.913Z,2.00
2018-12-20T03:07:59.085Z,2.00
2018-12-20T03:11:03.160Z,2.00
2018-12-20T03:14:07.144Z,2.00
2018-12-20T03:17:11.062Z,2.00
2018-12-20T03:20:15.122Z,2.10
2018-12-20T03:23:19.196Z,2.10
2018-12-20T03:26:23.349Z,2.20
2018-12-20T03:29:27.342Z,2.20
2018-12-20T03:32:31.251Z,2.30
2018-12-20T03:35:35.369Z,2.30
2018-12-20T03:38:42.425Z,2.30
2018-12-20T03:41:46.450Z,2.20
2018-12-20T03:44:50.631Z,2.20
2018-12-20T03:47:54.842Z,2.20
2018-12-20T03:50:58.988Z,2.20
2018-12-20T03:54:03.147Z,2.20
2018-12-20T03:57:07.162Z,2.20
2018-12-20T04:00:11.141Z,2.20
2018-12-20T04:03:14.997Z,2.20
2018-12-20T04:06:18.873Z,2.10
2018-12-20T04:09:22.754Z,2.20
2018-12-20T04:12:27.177Z,2.20
2018-12-20T04:15:37.829Z,2.10
2018-12-20T04:18:37.345Z,2.10
2018-12-20T04:21:41.366Z,2.20
2018-12-20T04:24:45.344Z,2.20
2018-12-20T04:27:49.430Z,2.30
2018-12-20T04:30:53.696Z,2.30
2018-12-20T04:33:57.828Z,2.30
2018-12-20T04:37:01.843Z,2.30
2018-12-20T04:40:06.081Z,2.30
2018-12-20T04:43:10.091Z,2.40
2018-12-20T04:46:14.100Z,2.40
2018-12-20T04:49:18.405Z,2.30
2018-12-20T04:52:22.463Z,2.30
2018-12-20T04:55:26.426Z,2.20
2018-12-20T04:58:30.430Z,2.20
2018-12-20T05:01:34.776Z,2.20
2018-12-20T05:04:38.906Z,2.20
2018-12-20T05:07:42.900Z,2.20
2018-12-20T05:10:46.869Z,2.20
2018-12-20T05:13:50.781Z,2.10
2018-12-20T05:16:54.658Z,2.00
2018-12-20T05:19:58.561Z,2.00
2018-12-20T05:23:02.416Z,2.00
2018-12-20T05:26:06.707Z,2.00
2018-12-20T05:29:10.664Z,2.00
2018-12-20T05:32:14.681Z,1.90
2018-12-20T05:35:18.738Z,1.90
2018-12-20T05:38:22.760Z,1.90
2018-12-20T05:41:26.735Z,1.90
2018-12-20T05:44:30.762Z,2.00
2018-12-20T05:47:34.800Z,1.90
2018-12-20T05:50:38.711Z,1.90
2018-12-20T05:53:42.601Z,1.90
2018-12-20T05:56:46.626Z,1.80
2018-12-20T05:59:50.629Z,1.80
2018-12-20T06:02:54.627Z,1.80
2018-12-20T06:05:58.605Z,1.80
2018-12-20T06:09:02.813Z,1.80
2018-12-20T06:12:06.872Z,1.80
2018-12-20T06:15:11.164Z,1.70
2018-12-20T06:18:15.308Z,1.70
2018-12-20T06:21:19.370Z,1.70
2018-12-20T06:24:23.265Z,1.80
2018-12-20T06:27:27.212Z,1.90
2018-12-20T06:30:31.078Z,1.90
2018-12-20T06:33:35.161Z,1.90
2018-12-20T06:36:39.060Z,1.90
2018-12-20T06:39:42.969Z,1.90
2018-12-20T06:42:46.805Z,1.90
2018-12-20T06:45:50.691Z,1.90
2018-12-20T06:48:54.570Z,1.90
2018-12-20T06:51:58.605Z,1.90
2018-12-20T06:55:02.472Z,1.90
2018-12-20T06:58:06.592Z,1.90
2018-12-20T07:01:10.469Z,2.00
2018-12-20T07:04:14.419Z,2.00
2018-12-20T07:07:18.418Z,2.10
2018-12-20T07:10:22.323Z,2.20
2018-12-20T07:13:26.265Z,2.10
2018-12-20T07:16:30.145Z,2.10
2018-12-20T07:19:34.041Z,2.10
2018-12-20T07:22:38.052Z,2.10
2018-12-20T07:25:41.958Z,2.10
2018-12-20T07:28:45.881Z,2.00
2018-12-20T07:31:50.200Z,2.00
2018-12-20T07:34:54.127Z,2.00
2018-12-20T07:37:58.030Z,2.00
2018-12-20T07:41:01.921Z,2.00
2018-12-20T07:44:06.064Z,2.00
2018-12-20T07:47:10.146Z,2.00
2018-12-20T07:50:14.075Z,2.00
2018-12-20T07:53:17.953Z,2.00
2018-12-20T07:56:21.866Z,2.10
2018-12-20T07:59:25.757Z,2.10
2018-12-20T08:02:29.747Z,2.20
2018-12-20T08:05:34.375Z,2.20
2018-12-20T08:08:38.315Z,2.20
2018-12-20T08:11:42.256Z,2.20
2018-12-20T08:14:46.159Z,2.20
2018-12-20T08:17:50.137Z,2.20
2018-12-20T08:20:53.999Z,2.20
2018-12-20T08:23:57.911Z,2.30
2018-12-20T08:27:01.888Z,2.30
2018-12-20T08:30:06.515Z,2.30
2018-12-20T08:33:10.513Z,2.30
2018-12-20T08:36:14.535Z,2.30
2018-12-20T08:39:18.474Z,2.30
2018-12-20T08:42:22.385Z,2.30
2018-12-20T08:45:26.302Z,2.40
2018-12-20T08:48:30.189Z,2.40
2018-12-20T08:51:34.019Z,2.40
2018-12-20T08:54:37.974Z,2.50
2018-12-20T08:57:42.459Z,2.50
2018-12-20T09:00:46.644Z,2.60
2018-12-20T09:03:51.131Z,2.60
2018-12-20T09:06:55.651Z,2.70
2018-12-20T09:09:59.546Z,2.70
2018-12-20T09:13:09.467Z,2.80
2018-12-20T09:16:09.522Z,2.80
2018-12-20T09:19:13.474Z,2.80
2018-12-20T09:38:51.588Z,2.30
2018-12-20T09:41:55.679Z,2.30
2018-12-20T09:44:59.870Z,2.40
2018-12-20T09:48:05.905Z,2.60
2018-12-20T09:51:10.935Z,2.70
2018-12-20T09:54:14.836Z,2.90
2018-12-20T09:57:19.294Z,3.00
2018-12-20T10:00:23.499Z,3.10
2018-12-20T10:03:27.452Z,3.10
2018-12-20T10:06:32.500Z,3.30
2018-12-20T10:09:36.645Z,3.30
2018-12-20T10:12:40.538Z,3.40
2018-12-20T10:15:44.499Z,3.40
2018-12-20T10:18:48.482Z,3.40
2018-12-20T10:21:52.409Z,3.40
2018-12-20T10:24:56.370Z,3.50
2018-12-20T10:28:00.303Z,3.50
2018-12-20T10:31:04.342Z,3.50
2018-12-20T10:34:08.224Z,3.60
2018-12-20T10:37:12.096Z,3.70
2018-12-20T10:40:16.471Z,3.70
2018-12-20T10:43:20.417Z,3.60
2018-12-20T10:46:24.334Z,3.70
2018-12-20T10:49:28.461Z,3.80
2018-12-20T10:52:32.845Z,3.90
2018-12-20T10:55:37.156Z,4.00
2018-12-20T10:58:41.336Z,4.10
2018-12-20T11:01:49.237Z,4.30
2018-12-20T11:04:58.670Z,4.30
2018-12-20T11:08:08.111Z,4.30
2018-12-20T11:11:16.147Z,4.40
2018-12-20T11:14:20.037Z,4.60
2018-12-20T11:17:23.953Z,4.90
2018-12-20T11:20:28.335Z,5.00
2018-12-20T11:23:32.763Z,5.30
2018-12-20T11:26:36.762Z,5.60
2018-12-20T11:29:41.050Z,5.90
2018-12-20T11:32:45.358Z,6.00
2018-12-20T11:35:49.229Z,6.10
2018-12-20T11:38:53.147Z,6.30
2018-12-20T11:41:57.381Z,6.60
2018-12-20T11:45:01.299Z,7.00
2018-12-20T11:48:05.226Z,7.30
2018-12-20T11:51:09.138Z,7.40
2018-12-20T11:54:13.279Z,7.50
2018-12-20T11:57:17.625Z,8.20
2018-12-20T12:00:21.910Z,8.80
2018-12-20T12:03:26.576Z,9.30
2018-12-20T12:06:30.481Z,9.20
2018-12-20T12:09:35.632Z,9.00
2018-12-20T12:12:39.745Z,8.70
2018-12-20T12:15:43.997Z,8.40
2018-12-20T12:18:48.426Z,8.10
2018-12-20T12:21:52.551Z,7.90
2018-12-20T12:24:56.901Z,7.60
2018-12-20T12:28:01.142Z,7.40
2018-12-20T12:31:05.455Z,7.10
2018-12-20T12:34:09.880Z,7.00
2018-12-20T12:37:14.370Z,7.00
2018-12-20T12:40:18.800Z,6.90
2018-12-20T12:43:22.750Z,7.00
2018-12-20T12:46:26.782Z,7.20
2018-12-20T12:49:31.173Z,7.20
2018-12-20T12:52:35.519Z,7.30
2018-12-20T12:55:39.720Z,7.30
2018-12-20T12:58:44.015Z,7.20
2018-12-20T13:01:48.442Z,7.00
2018-12-20T13:04:52.810Z,6.70
2018-12-20T13:07:57.073Z,6.30
2018-12-20T13:11:01.331Z,6.20
2018-12-20T13:14:05.821Z,5.80
2018-12-20T13:17:10.160Z,5.80
2018-12-20T13:20:14.614Z,5.90
2018-12-20T13:23:18.915Z,6.30
2018-12-20T13:26:23.276Z,7.20
2018-12-20T13:29:27.551Z,7.70
2018-12-20T13:32:31.760Z,8.00
2018-12-20T13:35:35.992Z,8.00
2018-12-20T13:38:40.417Z,8.10
2018-12-20T13:41:44.877Z,8.40
2018-12-20T13:44:49.092Z,8.60
2018-12-20T13:47:53.510Z,8.70
2018-12-20T13:50:57.870Z,8.40
2018-12-20T13:54:02.237Z,8.10
2018-12-20T13:57:06.716Z,7.50
2018-12-20T14:00:15.314Z,7.10
2018-12-20T14:03:19.180Z,6.80
2018-12-20T14:06:23.533Z,6.50
2018-12-20T14:09:27.891Z,6.10
2018-12-20T14:12:32.185Z,5.80
2018-12-20T14:15:36.544Z,5.60
2018-12-20T14:18:40.456Z,5.40
2018-12-20T14:21:44.767Z,5.20
2018-12-20T14:24:49.059Z,5.10
2018-12-20T14:27:53.402Z,4.90
2018-12-20T14:30:57.499Z,4.90
2018-12-20T14:34:01.716Z,4.80
2018-12-20T14:37:06.002Z,4.70
2018-12-20T14:40:10.764Z,4.60
2018-12-20T14:43:15.156Z,4.50
2018-12-20T14:46:19.559Z,4.50
2018-12-20T14:49:23.872Z,4.40
2018-12-20T14:52:27.812Z,4.30
2018-12-20T14:55:31.955Z,4.30
2018-12-20T14:58:36.454Z,4.20
2018-12-20T15:01:40.788Z,4.20
2018-12-20T15:04:45.091Z,4.20
2018-12-20T15:07:49.248Z,4.20
2018-12-20T15:10:53.240Z,4.10
2018-12-20T15:13:57.131Z,4.10
2018-12-20T15:17:01.093Z,4.10
2018-12-20T15:20:06.132Z,4.10
2018-12-20T15:23:10.433Z,4.10
2018-12-20T15:26:14.697Z,4.10
2018-12-20T15:29:19.528Z,4.10
2018-12-20T15:32:23.955Z,4.10
2018-12-20T15:35:28.281Z,4.10
2018-12-20T15:38:33.208Z,4.10
2018-12-20T15:41:37.560Z,4.10
2018-12-20T15:44:41.846Z,4.10
2018-12-20T15:47:46.299Z,4.10
2018-12-20T15:50:50.663Z,4.10
2018-12-20T15:53:54.946Z,4.10
2018-12-20T15:56:58.806Z,4.10
2018-12-20T16:00:03.638Z,4.10
2018-12-20T16:03:07.884Z,4.00
2018-12-20T16:06:12.643Z,4.00
2018-12-20T16:09:17.054Z,4.10
2018-12-20T16:12:21.246Z,4.00
2018-12-20T16:15:25.108Z,4.10
2018-12-20T16:18:29.415Z,4.10
2018-12-20T16:21:33.634Z,4.10
2018-12-20T16:24:37.568Z,4.20
2018-12-20T16:27:41.901Z,4.20
2018-12-20T16:30:45.850Z,4.20
2018-12-20T16:33:49.774Z,4.20
2018-12-20T16:36:54.301Z,4.30
2018-12-20T16:39:58.736Z,4.30
2018-12-20T16:43:02.626Z,4.20
2018-12-20T16:46:06.569Z,4.20
2018-12-20T16:49:13.682Z,4.20
2018-12-20T16:52:16.857Z,4.10
2018-12-20T16:55:20.942Z,4.10
2018-12-20T16:58:25.737Z,4.10
2018-12-20T17:01:30.284Z,4.10
2018-12-20T17:04:35.243Z,4.10
2018-12-20T17:07:39.196Z,4.10
2018-12-20T17:10:43.566Z,4.10
2018-12-20T17:13:47.815Z,4.10
2018-12-20T17:16:51.752Z,4.10
2018-12-20T17:19:56.017Z,4.10
2018-12-20T17:23:00.312Z,4.10
2018-12-20T17:26:04.630Z,4.10
2018-12-20T17:29:09.263Z,4.10
2018-12-20T17:32:13.462Z,4.10
2018-12-20T17:35:18.788Z,4.10
2018-12-20T17:38:23.351Z,4.10
2018-12-20T17:41:27.644Z,4.20
2018-12-20T17:44:32.162Z,4.10
2018-12-20T17:47:36.483Z,4.10
2018-12-20T17:50:41.044Z,4.10
2018-12-20T17:53:44.987Z,4.10
2018-12-20T17:56:48.975Z,4.10
2018-12-20T17:59:52.839Z,4.10
2018-12-20T18:02:57.381Z,4.00
2018-12-20T18:06:01.593Z,4.00
2018-12-20T18:09:08.314Z,4.00
2018-12-20T18:12:12.343Z,4.00
2018-12-20T18:15:16.712Z,4.00
2018-12-20T18:18:21.296Z,4.00
2018-12-20T18:21:25.317Z,3.90
2018-12-20T18:24:29.633Z,3.90
2018-12-20T18:27:33.591Z,3.90
2018-12-20T18:30:37.836Z,4.00
2018-12-20T18:33:41.805Z,4.00
2018-12-20T18:36:45.897Z,4.00
2018-12-20T18:39:50.241Z,4.00
2018-12-20T18:42:54.187Z,4.00
2018-12-20T18:45:58.517Z,3.90
2018-12-20T18:49:02.736Z,3.90
2018-12-20T18:52:06.984Z,4.00
2018-12-20T18:55:11.364Z,3.90
2018-12-20T18:58:15.744Z,3.90
2018-12-20T19:01:20.108Z,3.90
2018-12-20T19:04:24.557Z,3.90
2018-12-20T19:07:28.826Z,3.80
2018-12-20T19:10:33.141Z,3.90
2018-12-20T19:13:37.127Z,3.90
2018-12-20T19:16:41.312Z,3.90
2018-12-20T19:19:56.005Z,3.90
2018-12-20T19:22:53.991Z,3.90
2018-12-20T19:25:58.263Z,3.90
2018-12-20T19:29:03.968Z,4.00
2018-12-20T19:32:21.519Z,3.90
2018-12-20T19:35:26.014Z,3.90
2018-12-20T19:38:30.283Z,3.90
2018-12-20T19:41:34.678Z,3.90
2018-12-20T19:44:39.039Z,3.90
2018-12-20T19:47:42.955Z,3.90
2018-12-20T19:50:47.068Z,3.90
2018-12-20T19:53:51.513Z,3.90
2018-12-20T19:56:57.679Z,3.90
2018-12-20T20:00:02.051Z,3.80
2018-12-20T20:03:06.016Z,3.80
2018-12-20T20:06:10.644Z,3.90
2018-12-20T20:09:15.019Z,3.90
2018-12-20T20:12:19.379Z,3.80
2018-12-20T20:15:23.894Z,3.80
2018-12-20T20:18:27.763Z,3.90
2018-12-20T20:21:31.610Z,3.90
2018-12-20T20:24:36.096Z,3.80
2018-12-20T20:27:40.415Z,3.80
2018-12-20T20:30:44.628Z,3.80
2018-12-20T20:33:50.336Z,3.80
2018-12-20T20:36:55.187Z,3.80
2018-12-20T20:40:05.351Z,3.70
2018-12-20T20:43:09.812Z,3.70
2018-12-20T20:46:13.776Z,3.70
2018-12-20T20:49:25.386Z,3.70
2018-12-20T20:52:30.221Z,3.60
2018-12-20T20:55:34.152Z,3.60
2018-12-20T20:58:38.383Z,3.60
2018-12-20T21:01:42.617Z,3.50
2018-12-20T21:04:47.127Z,3.50
2018-12-20T21:07:51.401Z,3.40
2018-12-20T21:10:55.656Z,3.40
2018-12-20T21:14:00.127Z,3.40
2018-12-20T21:17:04.342Z,3.40
2018-12-20T21:20:10.915Z,3.40
2018-12-20T21:23:14.933Z,3.40
2018-12-20T21:26:18.855Z,3.30
2018-12-20T21:29:23.333Z,3.40
2018-12-20T21:32:27.494Z,3.40
2018-12-20T21:35:31.443Z,3.30
2018-12-20T21:38:35.718Z,3.30
2018-12-20T21:41:40.051Z,3.30
2018-12-20T21:44:44.675Z,3.40
2018-12-20T21:47:49.179Z,3.40
2018-12-20T21:50:53.486Z,3.40
2018-12-20T21:53:57.762Z,3.40
2018-12-20T21:57:02.041Z,3.30
2018-12-20T22:00:09.207Z,3.30
2018-12-20T22:03:13.357Z,3.40
2018-12-20T22:06:17.257Z,3.40
2018-12-20T22:09:21.624Z,3.30
2018-12-20T22:12:25.911Z,3.20
2018-12-20T22:15:30.264Z,3.20
2018-12-20T22:18:34.666Z,3.10
2018-12-20T22:21:39.119Z,3.00
2018-12-20T22:24:43.311Z,3.00
2018-12-20T22:27:48.392Z,2.90
2018-12-20T22:30:52.283Z,2.90
2018-12-20T22:33:56.579Z,2.90
2018-12-20T22:37:00.948Z,2.90
2018-12-20T22:40:06.035Z,2.90
2018-12-20T22:43:10.255Z,2.90
2018-12-20T22:46:14.691Z,2.90
2018-12-20T22:49:19.083Z,2.90
2018-12-20T22:52:23.079Z,2.90
2018-12-20T22:55:27.058Z,2.90
2018-12-20T22:58:31.198Z,2.90
2018-12-20T23:01:35.344Z,2.80
2018-12-20T23:04:39.319Z,2.80
2018-12-20T23:07:43.769Z,2.80
2018-12-20T23:10:47.940Z,2.80
2018-12-20T23:13:52.157Z,2.70
2018-12-20T23:17:02.723Z,2.70
2018-12-20T23:20:07.830Z,2.70
2018-12-20T23:23:11.916Z,2.60
2018-12-20T23:26:16.218Z,2.60
2018-12-20T23:29:20.327Z,2.70
2018-12-20T23:32:24.532Z,2.70
2018-12-20T23:35:28.980Z,2.60
2018-12-20T23:38:33.299Z,2.60
2018-12-20T23:41:37.663Z,2.60
2018-12-20T23:44:41.998Z,2.60
2018-12-20T23:47:46.536Z,2.60
2018-12-20T23:50:50.468Z,2.40
2018-12-20T23:53:54.967Z,2.40
2018-12-20T23:56:58.882Z,2.30
